Time;durP1;ratioP1;P1;durP2;ratioP2;P2;SDS_P1;SDS_P2;PMS_P1;PMS_P2;Temp;Humidity;BMP_temperature;BMP_pressure;BME280_temperature;BME280_humidity;BME280_pressure;Samples;Min_cycle;Max_cycle;Signal;HPM_P1;HPM_P2
2021/07/17 00:01:09;;;;;;;20.60;16.50;;;17.30;99.90;;;;;;5056947;28;20459;-78
2021/07/17 00:03:36;;;;;;;20.37;15.77;;;17.30;99.90;;;;;;5057294;28;20483;-79
2021/07/17 00:06:03;;;;;;;19.47;15.43;;;17.30;99.90;;;;;;5059897;28;20470;-78
2021/07/17 00:08:31;;;;;;;21.80;17.00;;;17.30;99.90;;;;;;5060186;28;20518;-78
2021/07/17 00:10:58;;;;;;;22.57;17.17;;;17.40;99.90;;;;;;5063678;28;20463;-78
2021/07/17 00:13:24;;;;;;;20.10;16.50;;;17.30;99.90;;;;;;5063404;28;20463;-78
2021/07/17 00:15:51;;;;;;;23.67;17.80;;;17.30;99.90;;;;;;5064951;28;20459;-79
2021/07/17 00:18:20;;;;;;;25.37;17.37;;;17.30;99.90;;;;;;5064011;28;20493;-80
2021/07/17 00:20:48;;;;;;;23.03;17.63;;;17.30;99.90;;;;;;5062946;28;20774;-79
2021/07/17 00:23:15;;;;;;;21.63;17.70;;;17.30;99.90;;;;;;5064325;28;21377;-78
2021/07/17 00:25:43;;;;;;;25.17;16.43;;;17.20;99.90;;;;;;5064543;28;20514;-78
2021/07/17 00:28:10;;;;;;;22.47;17.47;;;17.20;99.90;;;;;;5063768;28;20489;-78
2021/07/17 00:30:36;;;;;;;23.60;15.90;;;17.20;99.90;;;;;;5062956;28;20482;-78
2021/07/17 00:33:04;;;;;;;23.40;16.97;;;17.20;99.90;;;;;;5064558;28;20452;-80
2021/07/17 00:35:32;;;;;;;26.43;17.90;;;17.20;99.90;;;;;;5063252;28;20475;-79
2021/07/17 00:37:59;;;;;;;25.23;18.47;;;17.20;99.90;;;;;;5064595;28;20459;-80
2021/07/17 00:40:26;;;;;;;22.83;17.47;;;17.10;99.90;;;;;;5063629;28;20467;-78
2021/07/17 00:42:53;;;;;;;22.30;18.40;;;17.10;99.90;;;;;;5062116;28;20462;-79
2021/07/17 00:45:20;;;;;;;20.53;16.13;;;17.10;99.90;;;;;;5058700;28;20491;-78
2021/07/17 00:47:48;;;;;;;24.33;17.43;;;17.10;99.90;;;;;;5055956;28;20463;-78
2021/07/17 00:50:16;;;;;;;21.07;17.13;;;17.10;99.90;;;;;;5056623;28;20459;-78
2021/07/17 00:52:45;;;;;;;28.07;18.33;;;17.10;99.90;;;;;;5057436;28;20475;-78
2021/07/17 00:55:13;;;;;;;23.63;18.80;;;17.10;99.90;;;;;;5059773;28;20483;-78
2021/07/17 00:57:42;;;;;;;23.83;18.30;;;17.10;99.90;;;;;;5059421;28;20470;-78
2021/07/17 01:00:11;;;;;;;21.40;17.60;;;17.00;99.90;;;;;;5059935;28;20489;-78
2021/07/17 01:02:41;;;;;;;25.33;18.00;;;17.00;99.90;;;;;;5060127;28;20459;-78
2021/07/17 01:05:09;;;;;;;25.10;19.10;;;17.00;99.90;;;;;;5059777;28;20855;-78
2021/07/17 01:07:35;;;;;;;27.03;17.57;;;17.00;99.90;;;;;;5060165;28;20463;-78
2021/07/17 01:10:05;;;;;;;22.27;17.10;;;17.00;99.90;;;;;;5059562;28;20966;-79
2021/07/17 01:12:32;;;;;;;22.33;17.80;;;17.00;99.90;;;;;;5060856;28;20466;-78
2021/07/17 01:14:59;;;;;;;25.90;16.97;;;17.00;99.90;;;;;;5061393;28;20603;-78
2021/07/17 01:17:26;;;;;;;26.30;18.40;;;17.00;99.90;;;;;;5061778;28;20495;-78
2021/07/17 01:19:53;;;;;;;21.90;16.37;;;17.00;99.90;;;;;;5182143;22;20829;-77
2021/07/17 01:22:21;;;;;;;24.40;18.00;;;17.00;99.90;;;;;;5214478;22;20496;-71
2021/07/17 01:24:48;;;;;;;21.70;17.10;;;17.00;99.90;;;;;;5091501;28;20511;-71
2021/07/17 01:27:16;;;;;;;24.37;17.90;;;17.00;99.90;;;;;;5091927;28;20458;-71
2021/07/17 01:29:43;;;;;;;24.37;18.93;;;16.90;99.90;;;;;;5091441;28;20497;-71
2021/07/17 01:32:10;;;;;;;22.10;16.63;;;16.90;99.90;;;;;;5091750;28;20834;-70
2021/07/17 01:34:37;;;;;;;24.77;18.10;;;16.90;99.90;;;;;;5091917;28;20995;-71
2021/07/17 01:37:04;;;;;;;24.67;17.00;;;16.90;99.90;;;;;;5091875;28;20466;-71
2021/07/17 01:39:32;;;;;;;23.97;16.73;;;16.90;99.90;;;;;;5091494;28;20483;-70
2021/07/17 01:41:59;;;;;;;21.90;17.80;;;17.00;99.90;;;;;;5092114;28;20457;-71
2021/07/17 01:44:26;;;;;;;22.03;16.97;;;16.90;99.90;;;;;;5091879;28;21027;-70
2021/07/17 01:46:54;;;;;;;18.67;16.70;;;16.90;99.90;;;;;;5091970;28;20461;-71
2021/07/17 01:49:21;;;;;;;18.93;16.07;;;16.90;99.90;;;;;;5091460;28;20489;-71
2021/07/17 01:51:47;;;;;;;20.37;16.70;;;17.00;99.90;;;;;;5091798;28;20461;-70
2021/07/17 01:54:14;;;;;;;19.73;15.97;;;16.90;99.90;;;;;;5091564;28;20530;-71
2021/07/17 01:56:42;;;;;;;17.23;15.30;;;17.00;99.90;;;;;;5091675;28;20461;-71
2021/07/17 01:59:09;;;;;;;22.10;16.67;;;17.00;99.90;;;;;;5090031;28;20458;-70
2021/07/17 02:01:36;;;;;;;20.90;15.67;;;17.00;99.90;;;;;;5091545;28;20489;-70
2021/07/17 02:04:03;;;;;;;20.53;16.57;;;17.00;99.90;;;;;;5091370;28;20478;-71
2021/07/17 02:06:30;;;;;;;19.70;15.43;;;17.00;99.90;;;;;;5091363;28;20464;-71
2021/07/17 02:08:57;;;;;;;22.60;16.10;;;17.00;99.90;;;;;;5091485;28;20466;-71
2021/07/17 02:11:24;;;;;;;17.93;15.70;;;17.00;99.90;;;;;;5090861;28;20518;-71
2021/07/17 02:13:54;;;;;;;21.43;16.00;;;17.00;99.90;;;;;;5091323;28;20474;-71
2021/07/17 02:16:21;;;;;;;26.00;16.70;;;17.00;99.90;;;;;;5091199;28;20457;-71
2021/07/17 02:18:48;;;;;;;21.73;15.80;;;17.00;99.90;;;;;;5091231;28;20469;-70
2021/07/17 02:21:16;;;;;;;18.90;15.83;;;17.00;99.90;;;;;;5090743;28;20474;-71
2021/07/17 02:23:43;;;;;;;18.43;15.90;;;17.00;99.90;;;;;;5091476;28;20489;-71
2021/07/17 02:26:10;;;;;;;17.33;14.90;;;17.00;99.90;;;;;;5091305;28;20489;-70
2021/07/17 02:28:38;;;;;;;19.10;16.07;;;17.00;99.90;;;;;;5091266;28;20468;-70
2021/07/17 02:31:07;;;;;;;20.93;15.47;;;17.00;99.90;;;;;;5090708;28;20975;-71
2021/07/17 02:33:34;;;;;;;19.27;15.70;;;16.90;99.90;;;;;;5090986;28;20918;-71
2021/07/17 02:36:01;;;;;;;20.10;16.33;;;16.90;99.90;;;;;;5091075;28;20460;-70
2021/07/17 02:38:27;;;;;;;18.00;15.67;;;16.80;99.90;;;;;;5091167;28;20465;-71
2021/07/17 02:40:54;;;;;;;23.20;16.33;;;16.90;99.90;;;;;;5090890;28;20468;-71
2021/07/17 02:43:21;;;;;;;16.80;14.80;;;16.90;99.90;;;;;;5090716;28;20967;-71
2021/07/17 02:45:48;;;;;;;19.33;14.90;;;16.90;99.90;;;;;;5090668;28;21102;-70
2021/07/17 02:48:16;;;;;;;17.50;15.20;;;16.90;99.90;;;;;;5090583;28;20461;-71
2021/07/17 02:50:42;;;;;;;18.73;14.23;;;16.90;99.90;;;;;;5090243;28;20985;-70
2021/07/17 02:53:10;;;;;;;19.87;14.73;;;16.90;99.90;;;;;;5090537;28;20590;-71
2021/07/17 02:55:36;;;;;;;16.47;14.27;;;16.90;99.90;;;;;;5090696;28;20476;-71
2021/07/17 02:58:04;;;;;;;14.23;12.73;;;16.90;99.90;;;;;;5090773;28;20465;-70
2021/07/17 03:00:33;;;;;;;22.23;15.13;;;17.00;99.90;;;;;;5090377;28;20827;-71
2021/07/17 03:03:00;;;;;;;18.00;14.63;;;16.90;99.90;;;;;;5090664;28;20875;-71
2021/07/17 03:05:29;;;;;;;18.23;14.53;;;16.90;99.90;;;;;;5090337;28;20493;-71
2021/07/17 03:07:55;;;;;;;19.13;15.63;;;16.90;99.90;;;;;;5090631;28;20866;-71
2021/07/17 03:10:22;;;;;;;18.63;14.40;;;16.90;99.90;;;;;;5089558;28;20461;-71
2021/07/17 03:12:49;;;;;;;21.10;15.80;;;16.90;99.90;;;;;;5090216;28;20527;-70
2021/07/17 03:15:16;;;;;;;18.73;15.00;;;16.80;99.90;;;;;;5090287;28;20838;-71
2021/07/17 03:17:43;;;;;;;17.70;14.30;;;16.80;99.90;;;;;;5090382;28;20461;-71
2021/07/17 03:20:10;;;;;;;25.50;15.93;;;16.80;99.90;;;;;;5089400;28;20457;-71
2021/07/17 03:22:38;;;;;;;21.00;16.07;;;16.80;99.90;;;;;;5090617;28;20983;-71
2021/07/17 03:25:07;;;;;;;20.17;15.53;;;16.80;99.90;;;;;;5090028;28;20486;-71
2021/07/17 03:27:34;;;;;;;18.37;15.13;;;16.80;99.90;;;;;;5090181;28;20461;-71
2021/07/17 03:30:00;;;;;;;20.80;15.33;;;16.80;99.90;;;;;;5089485;28;20462;-70
2021/07/17 03:32:27;;;;;;;20.30;16.37;;;16.80;99.90;;;;;;5089890;28;20476;-71
2021/07/17 03:34:54;;;;;;;20.17;15.67;;;16.80;99.90;;;;;;5089934;28;20481;-71
2021/07/17 03:37:21;;;;;;;21.07;17.00;;;16.70;99.90;;;;;;5089837;28;20460;-70
2021/07/17 03:39:49;;;;;;;18.97;15.43;;;16.70;99.90;;;;;;5089617;28;20582;-70
2021/07/17 03:42:16;;;;;;;19.93;16.73;;;16.70;99.90;;;;;;5089462;28;20837;-71
2021/07/17 03:44:43;;;;;;;23.60;16.43;;;16.70;99.90;;;;;;5089956;28;20481;-71
2021/07/17 03:47:10;;;;;;;19.63;16.13;;;16.70;99.90;;;;;;5089580;28;20466;-70
2021/07/17 03:49:36;;;;;;;24.40;16.37;;;16.70;99.90;;;;;;5089663;28;20461;-71
2021/07/17 03:52:04;;;;;;;21.47;16.57;;;16.70;99.90;;;;;;5089316;28;20465;-71
2021/07/17 03:54:30;;;;;;;20.20;15.73;;;16.70;99.90;;;;;;5089199;28;20985;-71
2021/07/17 03:56:59;;;;;;;21.57;17.60;;;16.70;99.90;;;;;;5089921;28;20466;-70
2021/07/17 03:59:26;;;;;;;21.43;17.60;;;16.70;99.90;;;;;;5089088;28;20599;-70
2021/07/17 04:01:52;;;;;;;23.23;16.40;;;16.70;99.90;;;;;;5089709;28;20470;-71
2021/07/17 04:04:19;;;;;;;20.10;16.17;;;16.70;99.90;;;;;;5089096;28;20477;-71
2021/07/17 04:06:46;;;;;;;19.30;17.17;;;16.60;99.90;;;;;;5089391;28;20486;-71
2021/07/17 04:09:13;;;;;;;20.50;16.10;;;16.60;99.90;;;;;;5088823;28;20461;-71
2021/07/17 04:11:40;;;;;;;18.00;15.80;;;16.60;99.90;;;;;;5088166;28;20457;-71
2021/07/17 04:14:08;;;;;;;18.67;16.60;;;16.70;99.90;;;;;;5089367;28;20477;-71
2021/07/17 04:16:34;;;;;;;19.63;15.33;;;16.70;99.90;;;;;;5089113;28;20454;-71
2021/07/17 04:19:01;;;;;;;22.10;16.13;;;16.70;99.90;;;;;;5089084;28;20466;-71
2021/07/17 04:21:28;;;;;;;17.33;15.40;;;16.70;99.90;;;;;;5088609;28;20469;-71
2021/07/17 04:23:54;;;;;;;24.07;16.73;;;16.70;99.90;;;;;;5088450;28;20481;-70
2021/07/17 04:26:21;;;;;;;24.83;15.70;;;16.70;99.90;;;;;;5089236;28;20492;-70
2021/07/17 04:28:48;;;;;;;22.10;15.23;;;16.60;99.90;;;;;;5089120;28;20464;-70
2021/07/17 04:31:16;;;;;;;19.93;15.60;;;16.70;99.90;;;;;;5088638;28;20457;-71
2021/07/17 04:33:42;;;;;;;19.50;15.10;;;16.70;99.90;;;;;;5089092;28;20500;-71
2021/07/17 04:36:10;;;;;;;22.73;15.83;;;16.70;99.90;;;;;;5088860;28;20453;-71
2021/07/17 04:38:37;;;;;;;20.77;15.30;;;16.70;99.90;;;;;;5089066;28;20794;-71
2021/07/17 04:41:04;;;;;;;21.73;15.63;;;16.70;99.90;;;;;;5088319;28;20461;-71
2021/07/17 04:43:31;;;;;;;20.03;14.80;;;16.70;99.90;;;;;;5088623;28;20469;-71
2021/07/17 04:45:57;;;;;;;20.63;15.47;;;16.70;99.90;;;;;;5088567;28;20482;-71
2021/07/17 04:48:25;;;;;;;17.43;14.73;;;16.70;99.90;;;;;;5088716;28;20465;-71
2021/07/17 04:50:52;;;;;;;18.90;15.20;;;16.70;99.90;;;;;;5088322;28;20461;-71
2021/07/17 04:53:19;;;;;;;19.33;15.50;;;16.70;99.90;;;;;;5088548;28;20857;-71
2021/07/17 04:55:46;;;;;;;20.00;15.03;;;16.70;99.90;;;;;;5088874;28;20485;-71
2021/07/17 04:58:12;;;;;;;22.40;16.40;;;16.80;99.90;;;;;;5088570;28;20453;-71
2021/07/17 05:00:39;;;;;;;18.57;14.70;;;16.80;99.90;;;;;;5087942;28;20845;-71
2021/07/17 05:03:06;;;;;;;21.70;15.40;;;16.80;99.90;;;;;;5088486;28;20466;-70
2021/07/17 05:05:34;;;;;;;18.20;14.90;;;16.80;99.90;;;;;;5088765;28;20478;-71
2021/07/17 05:08:01;;;;;;;15.93;13.70;;;16.70;99.90;;;;;;5088791;28;20461;-70
2021/07/17 05:10:27;;;;;;;18.87;15.33;;;16.80;99.90;;;;;;5087607;28;20995;-71
2021/07/17 05:12:54;;;;;;;20.00;15.80;;;16.80;99.90;;;;;;5088612;28;20511;-71
2021/07/17 05:15:22;;;;;;;19.70;16.97;;;16.80;99.90;;;;;;5088346;28;20530;-70
2021/07/17 05:17:48;;;;;;;18.90;15.77;;;16.80;99.90;;;;;;5088672;28;20871;-71
2021/07/17 05:20:16;;;;;;;17.73;14.43;;;16.80;99.90;;;;;;5088511;28;20465;-71
2021/07/17 05:22:45;;;;;;;20.13;15.67;;;16.80;99.90;;;;;;5088406;28;20968;-71
2021/07/17 05:25:12;;;;;;;21.57;15.73;;;16.80;99.90;;;;;;5088703;28;20568;-70
2021/07/17 05:27:38;;;;;;;21.07;16.20;;;16.80;99.90;;;;;;5088539;28;20457;-70
2021/07/17 05:30:06;;;;;;;17.10;15.17;;;16.80;99.90;;;;;;5088261;28;20464;-70
2021/07/17 05:32:33;;;;;;;22.90;15.40;;;16.80;99.90;;;;;;5056041;28;20463;-71
2021/07/17 05:35:00;;;;;;;20.73;15.00;;;16.70;99.90;;;;;;5052433;28;20478;-70
2021/07/17 05:37:26;;;;;;;20.37;15.23;;;16.70;99.90;;;;;;5051868;28;20463;-70
2021/07/17 05:39:54;;;;;;;18.40;14.47;;;16.70;99.90;;;;;;5051802;28;20467;-70
2021/07/17 05:42:23;;;;;;;21.63;15.90;;;16.80;99.90;;;;;;5051885;28;20763;-70
2021/07/17 05:44:50;;;;;;;18.57;15.23;;;16.80;99.90;;;;;;5051889;28;20826;-70
2021/07/17 05:47:17;;;;;;;20.00;15.57;;;16.80;99.90;;;;;;5051705;28;20498;-70
2021/07/17 05:49:44;;;;;;;20.70;15.13;;;16.80;99.90;;;;;;5051065;28;20470;-70
2021/07/17 05:52:11;;;;;;;20.37;15.20;;;16.80;99.90;;;;;;5051325;28;20463;-69
2021/07/17 05:54:38;;;;;;;21.80;15.70;;;16.80;99.90;;;;;;5051308;28;21009;-70
2021/07/17 05:57:08;;;;;;;17.03;15.23;;;16.80;99.90;;;;;;5051568;28;20459;-70
2021/07/17 05:59:35;;;;;;;21.50;16.23;;;16.90;99.90;;;;;;5050628;28;20463;-70
2021/07/17 06:02:01;;;;;;;18.70;14.37;;;16.90;99.90;;;;;;5051015;28;20459;-70
2021/07/17 06:04:28;;;;;;;21.27;15.40;;;16.90;99.90;;;;;;5051061;28;20846;-70
2021/07/17 06:06:55;;;;;;;22.90;16.17;;;16.90;99.90;;;;;;5051310;28;21175;-70
2021/07/17 06:09:21;;;;;;;21.70;15.37;;;16.90;99.90;;;;;;5050318;28;20467;-69
2021/07/17 06:11:48;;;;;;;19.13;15.77;;;16.90;99.90;;;;;;5051535;28;20866;-70
2021/07/17 06:14:17;;;;;;;21.73;15.13;;;16.90;99.90;;;;;;5050640;28;20487;-70
2021/07/17 06:16:44;;;;;;;16.90;14.87;;;16.90;99.90;;;;;;5051072;28;20455;-70
2021/07/17 06:19:11;;;;;;;21.47;15.20;;;16.90;99.90;;;;;;5050227;28;20977;-70
2021/07/17 06:21:38;;;;;;;18.83;15.00;;;17.00;99.90;;;;;;5050991;28;21087;-70
2021/07/17 06:24:06;;;;;;;17.80;14.30;;;17.00;99.90;;;;;;5050487;28;21009;-70
2021/07/17 06:26:32;;;;;;;27.73;16.00;;;17.00;99.90;;;;;;5050300;28;21178;-70
2021/07/17 06:28:59;;;;;;;20.53;14.60;;;17.00;99.90;;;;;;5050755;28;20494;-70
2021/07/17 06:31:27;;;;;;;21.80;15.50;;;17.00;99.90;;;;;;5049801;28;20459;-71
2021/07/17 06:33:54;;;;;;;17.50;14.23;;;17.00;99.90;;;;;;5050507;28;20490;-71
2021/07/17 06:36:21;;;;;;;18.27;14.00;;;17.00;99.90;;;;;;5050381;28;20455;-71
2021/07/17 06:38:48;;;;;;;19.80;14.23;;;17.00;99.90;;;;;;5050716;28;20463;-70
2021/07/17 06:41:15;;;;;;;21.17;13.87;;;17.00;99.90;;;;;;5049697;28;20879;-70
2021/07/17 06:43:41;;;;;;;16.97;14.80;;;17.10;99.90;;;;;;5055177;28;20458;-70
2021/07/17 06:46:08;;;;;;;19.53;15.07;;;17.10;99.90;;;;;;5059270;28;21005;-71
2021/07/17 06:48:36;;;;;;;21.97;15.40;;;17.10;99.90;;;;;;5057839;28;20494;-71
2021/07/17 06:51:03;;;;;;;16.50;14.33;;;17.10;99.90;;;;;;5058877;28;20458;-71
2021/07/17 06:53:30;;;;;;;19.53;14.67;;;17.10;99.90;;;;;;5051222;28;20483;-71
2021/07/17 06:55:57;;;;;;;17.60;14.57;;;17.10;99.90;;;;;;5069459;28;20895;-70
2021/07/17 06:58:23;;;;;;;19.77;15.97;;;17.10;99.90;;;;;;5050781;28;20517;-70
2021/07/17 07:00:50;;;;;;;19.83;14.73;;;17.10;99.90;;;;;;5049725;28;20463;-70
2021/07/17 07:03:17;;;;;;;18.27;15.97;;;17.20;99.90;;;;;;5049363;28;20459;-70
2021/07/17 07:05:45;;;;;;;22.03;15.90;;;17.20;99.90;;;;;;5049928;28;20480;-69
2021/07/17 07:08:11;;;;;;;16.00;14.23;;;17.20;99.90;;;;;;5049866;28;20528;-69
2021/07/17 07:10:38;;;;;;;17.40;15.00;;;17.20;99.90;;;;;;5049221;28;20467;-69
2021/07/17 07:13:09;;;;;;;20.40;15.20;;;17.20;99.90;;;;;;5049380;28;20455;-70
2021/07/17 07:15:36;;;;;;;23.20;15.17;;;17.30;99.90;;;;;;5049616;28;20492;-69
2021/07/17 07:18:03;;;;;;;21.53;13.90;;;17.30;99.90;;;;;;5049761;28;20474;-69
2021/07/17 07:20:30;;;;;;;21.23;15.67;;;17.30;99.90;;;;;;5048444;28;20980;-69
2021/07/17 07:22:58;;;;;;;20.07;15.90;;;17.30;99.90;;;;;;5049316;28;20524;-69
2021/07/17 07:25:25;;;;;;;16.90;14.10;;;17.30;99.90;;;;;;5237019;22;20581;-73
2021/07/17 07:27:52;;;;;;;15.43;13.83;;;17.40;99.90;;;;;;5089173;28;20481;-74
2021/07/17 07:30:19;;;;;;;17.43;15.53;;;17.40;99.90;;;;;;5089027;28;20473;-73
2021/07/17 07:32:47;;;;;;;18.90;15.80;;;17.40;99.90;;;;;;5089245;28;20878;-74
2021/07/17 07:35:14;;;;;;;17.50;15.47;;;17.40;99.90;;;;;;5089425;28;20486;-73
2021/07/17 07:37:41;;;;;;;18.67;14.10;;;17.40;99.90;;;;;;5069778;28;20480;-74
2021/07/17 07:40:10;;;;;;;15.80;14.00;;;17.40;99.90;;;;;;5068687;28;20982;-72
2021/07/17 07:42:37;;;;;;;17.80;15.00;;;17.40;99.90;;;;;;5068812;28;20549;-73
2021/07/17 07:45:04;;;;;;;16.83;14.53;;;17.40;99.90;;;;;;5069204;28;21031;-72
2021/07/17 07:47:31;;;;;;;17.40;14.33;;;17.50;99.90;;;;;;5068942;28;20491;-73
2021/07/17 07:49:58;;;;;;;17.37;14.13;;;17.50;99.90;;;;;;5068266;28;21194;-72
2021/07/17 07:52:25;;;;;;;18.97;14.80;;;17.50;99.90;;;;;;5068613;28;20519;-71
2021/07/17 07:54:51;;;;;;;19.73;14.93;;;17.50;99.90;;;;;;5068917;28;20478;-72
2021/07/17 07:57:20;;;;;;;18.33;15.27;;;17.60;99.90;;;;;;5068225;28;20482;-72
2021/07/17 07:59:46;;;;;;;20.40;15.03;;;17.50;99.90;;;;;;5067680;28;20454;-71
2021/07/17 08:02:13;;;;;;;17.50;15.20;;;17.50;99.90;;;;;;5068477;28;20470;-72
2021/07/17 08:04:40;;;;;;;20.30;15.17;;;17.60;99.90;;;;;;5069556;28;20482;-73
2021/07/17 08:07:08;;;;;;;21.43;15.73;;;17.60;99.90;;;;;;5069035;28;20486;-75
2021/07/17 08:09:35;;;;;;;18.20;15.27;;;17.60;99.90;;;;;;5068917;28;20553;-76
2021/07/17 08:12:01;;;;;;;22.10;15.70;;;17.60;99.90;;;;;;5069500;28;20791;-73
2021/07/17 08:14:29;;;;;;;17.10;14.67;;;17.60;99.90;;;;;;5068877;28;20871;-72
2021/07/17 08:16:56;;;;;;;17.63;15.17;;;17.60;99.90;;;;;;5069143;28;20459;-70
2021/07/17 08:19:23;;;;;;;21.33;16.03;;;17.60;99.90;;;;;;5068412;28;20976;-71
2021/07/17 08:21:50;;;;;;;21.77;16.37;;;17.60;99.90;;;;;;5069139;28;20459;-71
2021/07/17 08:24:16;;;;;;;19.73;15.53;;;17.60;99.90;;;;;;5068701;28;20478;-71
2021/07/17 08:26:43;;;;;;;19.57;15.40;;;17.60;99.90;;;;;;5069047;28;20490;-68
2021/07/17 08:29:10;;;;;;;21.80;15.80;;;17.60;99.90;;;;;;5068423;28;20486;-69
2021/07/17 08:31:38;;;;;;;20.80;15.87;;;17.60;99.90;;;;;;5068864;28;20516;-71
2021/07/17 08:34:04;;;;;;;25.40;14.87;;;17.60;99.90;;;;;;5068702;28;21005;-70
2021/07/17 08:36:32;;;;;;;15.93;14.23;;;17.50;99.90;;;;;;5068920;28;20488;-72
2021/07/17 08:38:58;;;;;;;19.53;15.27;;;17.50;99.90;;;;;;5068862;28;20484;-71
2021/07/17 08:41:29;;;;;;;21.23;16.73;;;17.50;99.90;;;;;;5088555;28;20461;-71
2021/07/17 08:43:57;;;;;;;21.50;15.47;;;17.60;99.90;;;;;;5088800;28;20523;-69
2021/07/17 08:46:24;;;;;;;18.53;15.73;;;17.60;99.90;;;;;;5088822;28;20485;-72
2021/07/17 08:48:55;;;;;;;19.63;16.30;;;17.60;99.90;;;;;;5088157;28;20469;-71
2021/07/17 08:51:23;;;;;;;17.27;15.47;;;17.50;99.90;;;;;;5088292;28;20461;-72
2021/07/17 08:53:50;;;;;;;24.13;16.53;;;17.50;99.90;;;;;;5052509;28;20541;-72
2021/07/17 08:56:17;;;;;;;21.73;16.37;;;17.50;99.90;;;;;;5048644;28;20892;-76
2021/07/17 08:58:44;;;;;;;19.83;15.40;;;17.50;99.90;;;;;;5059449;28;20468;-74
2021/07/17 09:01:14;;;;;;;17.20;15.33;;;17.60;99.90;;;;;;5072911;28;20454;-73
2021/07/17 09:03:41;;;;;;;23.97;16.30;;;17.60;99.90;;;;;;5067488;28;21256;-73
2021/07/17 09:06:09;;;;;;;23.53;16.23;;;17.50;99.90;;;;;;5068200;28;20466;-76
2021/07/17 09:08:36;;;;;;;22.13;17.30;;;17.60;99.90;;;;;;5068135;28;20461;-75
2021/07/17 09:11:03;;;;;;;29.17;18.30;;;17.60;99.90;;;;;;5069633;28;20457;-74
2021/07/17 09:13:31;;;;;;;25.30;16.70;;;17.70;99.90;;;;;;5071716;28;20770;-74
2021/07/17 09:16:00;;;;;;;23.73;17.77;;;17.70;99.90;;;;;;5072550;28;20485;-74
2021/07/17 09:18:36;;;;;;;20.03;15.53;;;17.80;99.90;;;;;;5071182;28;20552;-75
2021/07/17 09:21:07;;;;;;;20.60;16.07;;;17.90;99.90;;;;;;5055250;28;20627;-75
2021/07/17 09:23:37;;;;;;;20.97;17.00;;;18.00;99.90;;;;;;5061237;28;20459;-74
2021/07/17 09:26:13;;;;;;;18.70;16.57;;;18.10;99.90;;;;;;5052305;28;20859;-74
2021/07/17 09:28:40;;;;;;;23.30;17.43;;;18.20;99.90;;;;;;5051266;28;20451;-75
2021/07/17 09:31:08;;;;;;;20.00;15.80;;;18.20;99.90;;;;;;5051406;28;20458;-72
2021/07/17 09:33:35;;;;;;;21.13;15.73;;;18.20;99.90;;;;;;5050902;28;20458;-74
2021/07/17 09:36:02;;;;;;;18.00;15.20;;;18.10;99.90;;;;;;5051820;28;20467;-73
2021/07/17 09:38:32;;;;;;;19.07;16.17;;;18.20;99.90;;;;;;5051583;28;20866;-73
2021/07/17 09:41:04;;;;;;;17.80;14.73;;;18.20;99.90;;;;;;5050771;28;20943;-74
2021/07/17 09:43:42;;;;;;;24.40;17.03;;;18.30;99.90;;;;;;5051517;28;20462;-74
2021/07/17 09:46:21;;;;;;;18.90;14.90;;;18.30;99.90;;;;;;5051751;28;20528;-76
2021/07/17 09:48:52;;;;;;;21.77;14.73;;;18.30;99.90;;;;;;5051653;28;20864;-75
2021/07/17 09:51:20;;;;;;;20.90;15.10;;;18.30;99.90;;;;;;5051340;28;20451;-74
2021/07/17 09:53:48;;;;;;;19.97;16.10;;;18.30;99.90;;;;;;5051461;28;20989;-74
2021/07/17 09:56:18;;;;;;;16.87;14.70;;;18.20;99.90;;;;;;5051748;28;20878;-73
2021/07/17 09:58:45;;;;;;;17.80;14.50;;;18.30;99.90;;;;;;5052609;28;20542;-74
2021/07/17 10:01:18;;;;;;;21.57;15.03;;;18.30;99.90;;;;;;5051351;28;20934;-74
2021/07/17 10:03:46;;;;;;;17.00;15.30;;;18.30;99.90;;;;;;5050871;28;20557;-74
2021/07/17 10:06:57;;;;;;;18.10;14.73;;;18.40;99.90;;;;;;5051960;28;20487;-75
2021/07/17 10:09:34;;;;;;;22.83;15.60;;;18.40;99.90;;;;;;5045863;28;20470;-74
2021/07/17 10:12:05;;;;;;;21.00;14.93;;;18.30;99.90;;;;;;5051472;28;20520;-73
2021/07/17 10:14:37;;;;;;;18.23;13.80;;;18.30;99.90;;;;;;5051036;28;20483;-75
2021/07/17 10:17:06;;;;;;;19.23;16.07;;;18.20;99.90;;;;;;5051348;28;20888;-74
2021/07/17 10:19:33;;;;;;;19.33;14.77;;;18.30;99.90;;;;;;5049899;28;20463;-74
2021/07/17 10:22:01;;;;;;;18.87;15.10;;;18.30;99.90;;;;;;5049965;28;20466;-74
2021/07/17 10:24:28;;;;;;;18.87;14.83;;;18.30;99.90;;;;;;5050756;28;20475;-73
2021/07/17 10:26:55;;;;;;;17.00;13.60;;;18.30;99.90;;;;;;5050843;28;20487;-74
2021/07/17 10:29:26;;;;;;;18.93;14.80;;;18.30;99.90;;;;;;5050309;28;20517;-74
2021/07/17 10:31:53;;;;;;;22.40;15.40;;;18.40;99.90;;;;;;5050822;28;21154;-73
2021/07/17 10:34:21;;;;;;;17.30;14.50;;;18.50;99.90;;;;;;5050791;28;20486;-74
2021/07/17 10:36:55;;;;;;;19.70;15.77;;;18.50;99.90;;;;;;5050566;28;20471;-73
2021/07/17 10:39:27;;;;;;;21.73;15.97;;;18.60;99.90;;;;;;5050436;28;20851;-73
2021/07/17 10:41:54;;;;;;;21.87;16.03;;;18.60;99.90;;;;;;5050683;28;20844;-73
2021/07/17 10:44:41;;;;;;;20.50;15.77;;;18.70;99.90;;;;;;5050542;28;20487;-73
2021/07/17 10:47:12;;;;;;;18.70;15.30;;;18.70;99.90;;;;;;5050587;28;20475;-74
2021/07/17 10:49:42;;;;;;;19.80;16.13;;;18.70;99.90;;;;;;5049525;28;20473;-73
2021/07/17 10:52:09;;;;;;;17.47;15.67;;;18.80;99.90;;;;;;5050739;28;20482;-73
2021/07/17 10:54:37;;;;;;;20.63;15.70;;;18.70;99.90;;;;;;5050462;28;20483;-73
2021/07/17 10:57:05;;;;;;;19.47;15.33;;;18.80;99.90;;;;;;5050513;28;20491;-73
2021/07/17 10:59:47;;;;;;;19.53;15.50;;;18.80;99.90;;;;;;5049939;28;20463;-75
2021/07/17 11:02:24;;;;;;;17.97;14.90;;;18.90;99.90;;;;;;5071696;28;20461;-73
2021/07/17 11:05:02;;;;;;;25.83;15.60;;;18.90;99.90;;;;;;5090004;28;20481;-73
2021/07/17 11:07:35;;;;;;;17.70;15.63;;;18.90;99.90;;;;;;5091294;28;20509;-73
2021/07/17 11:10:22;;;;;;;18.63;14.90;;;18.90;99.90;;;;;;5090462;28;20465;-73
2021/07/17 11:12:51;;;;;;;17.43;14.20;;;18.90;99.90;;;;;;5090185;28;20605;-73
2021/07/17 11:15:41;;;;;;;18.30;14.40;;;18.80;99.90;;;;;;5090524;28;21030;-72
2021/07/17 11:18:22;;;;;;;18.10;14.73;;;18.80;99.90;;;;;;5090147;28;20884;-73
2021/07/17 11:20:49;;;;;;;16.40;14.53;;;18.90;99.90;;;;;;5089583;28;20522;-74
2021/07/17 11:23:18;;;;;;;16.93;15.07;;;18.90;99.90;;;;;;5089959;28;20457;-71
2021/07/17 11:25:55;;;;;;;17.67;14.57;;;18.90;99.90;;;;;;5089963;28;21061;-71
2021/07/17 11:29:02;;;;;;;19.63;15.00;;;18.90;99.90;;;;;;5090136;28;20838;-70
2021/07/17 11:31:48;;;;;;;20.80;13.87;;;18.90;99.90;;;;;;5089620;28;20458;-70
2021/07/17 11:34:43;;;;;;;17.83;14.80;;;19.00;99.90;;;;;;5089838;28;20480;-71
2021/07/17 11:37:22;;;;;;;14.37;12.87;;;19.00;99.90;;;;;;5089860;28;20457;-71
2021/07/17 11:39:51;;;;;;;15.57;13.00;;;19.00;99.90;;;;;;5088481;28;20990;-71
2021/07/17 11:42:20;;;;;;;15.87;14.17;;;19.10;99.90;;;;;;5089419;28;20891;-71
2021/07/17 11:44:48;;;;;;;17.47;14.60;;;19.10;99.90;;;;;;5088821;28;21082;-71
2021/07/17 11:47:18;;;;;;;15.70;14.00;;;19.00;99.90;;;;;;5089392;28;20886;-71
2021/07/17 11:49:47;;;;;;;15.43;13.80;;;19.00;99.90;;;;;;5075543;28;20455;-70
2021/07/17 11:52:17;;;;;;;17.30;13.97;;;19.00;99.90;;;;;;5049042;28;20467;-71
2021/07/17 11:54:45;;;;;;;20.07;14.30;;;19.00;99.90;;;;;;5049329;28;20570;-71
2021/07/17 11:57:16;;;;;;;16.03;14.30;;;19.00;99.90;;;;;;5048883;28;20878;-71
2021/07/17 11:59:44;;;;;;;18.97;14.90;;;19.00;99.90;;;;;;5048658;28;20471;-72
2021/07/17 12:02:13;;;;;;;14.00;12.60;;;19.00;99.90;;;;;;5048834;28;20467;-71
2021/07/17 12:04:43;;;;;;;16.57;13.70;;;19.10;99.90;;;;;;5048783;28;20998;-71
2021/07/17 12:07:13;;;;;;;16.80;13.47;;;19.10;99.90;;;;;;5048589;28;20467;-72
2021/07/17 12:09:42;;;;;;;18.17;14.47;;;19.10;99.90;;;;;;5048523;28;20463;-71
2021/07/17 12:12:22;;;;;;;19.90;13.70;;;19.20;99.90;;;;;;5048413;28;20467;-71
2021/07/17 12:14:56;;;;;;;17.83;14.10;;;19.20;99.90;;;;;;5048727;28;20483;-71
2021/07/17 12:17:23;;;;;;;15.63;14.03;;;19.30;99.90;;;;;;5048624;28;20905;-71
2021/07/17 12:20:05;;;;;;;16.17;13.93;;;19.40;99.90;;;;;;5048122;28;20522;-71
2021/07/17 12:22:32;;;;;;;15.07;13.00;;;19.50;99.90;;;;;;5048803;28;20468;-71
2021/07/17 12:25:06;;;;;;;16.53;14.33;;;19.50;99.90;;;;;;5048260;28;20491;-71
2021/07/17 12:27:48;;;;;;;16.60;14.90;;;19.50;99.90;;;;;;5048684;28;20541;-71
2021/07/17 12:30:14;;;;;;;19.17;15.00;;;19.50;99.90;;;;;;5047749;28;20892;-69
2021/07/17 12:32:41;;;;;;;18.83;15.10;;;19.50;99.90;;;;;;5048636;28;20455;-71
2021/07/17 12:35:10;;;;;;;20.30;15.10;;;19.50;99.90;;;;;;5047997;28;20994;-71